Glen Rose, Texas
Current Conditions -  °F | °C
As of 7:15 PM on Sunday 21 Dec 2014 (Local Time) from KGDJ Reporting Station
Clear Clear  
Wind Chill: 52°   Ceiling: Unl
Heat Index: 52°   Visibility: 10mi
Dew Point: 47°   Wind: 9mph
Humidity: 84%   Direction: 140°SE
Pressure: 29.81"   Gusts: NA
Location:  32.23°N, 97.76°W
Report Text: KGDJ 220115Z AUTO 14008KT 10SM CLR 11/09 A2981 RMK AO2 T01110085
Loading
Personal Weather Stations






























Interactive Weather Map New forecast layout! Learn more

10-Day Weather Forecast

Advertisements
Track Severe Weather on mobile